createdAt,value
2023-02-17T00:00:00.441Z,10.1
2023-02-17T00:01:00.510Z,10.1
2023-02-17T00:02:00.460Z,10.1
2023-02-17T00:03:00.454Z,10.1
2023-02-17T00:04:00.432Z,10.1
2023-02-17T00:05:00.448Z,10.2
2023-02-17T00:06:04.341Z,10.2
2023-02-17T00:07:00.473Z,10.2
2023-02-17T00:08:00.420Z,10.2
2023-02-17T00:09:00.555Z,10.2
2023-02-17T00:10:00.612Z,10.2
2023-02-17T00:11:00.484Z,10.1
2023-02-17T00:12:00.417Z,10.1
2023-02-17T00:13:00.423Z,10.1
2023-02-17T00:14:00.557Z,10.1
2023-02-17T00:15:00.449Z,10.1
2023-02-17T00:16:05.562Z,10.1
2023-02-17T00:17:00.445Z,10.1
2023-02-17T00:18:00.418Z,10.1
2023-02-17T00:19:00.779Z,10.1
2023-02-17T00:20:00.464Z,10.1
2023-02-17T00:21:09.250Z,10.1
2023-02-17T00:22:01.078Z,10.1
2023-02-17T00:23:00.502Z,10.1
2023-02-17T00:24:00.549Z,10.1
2023-02-17T00:25:00.422Z,10.2
2023-02-17T00:26:03.466Z,10.2
2023-02-17T00:27:00.433Z,10.2
2023-02-17T00:28:00.460Z,10.2
2023-02-17T00:29:00.455Z,10.1
2023-02-17T00:30:00.534Z,10.1
2023-02-17T00:31:04.936Z,10.1
2023-02-17T00:32:00.691Z,10.1
2023-02-17T00:33:00.460Z,10.1
2023-02-17T00:34:00.556Z,10.1
2023-02-17T00:35:00.452Z,10.2
2023-02-17T00:36:03.103Z,10.2
2023-02-17T00:37:00.711Z,10.1
2023-02-17T00:38:00.452Z,10.1
2023-02-17T00:39:00.590Z,10.1
2023-02-17T00:40:00.454Z,10.1
2023-02-17T00:41:00.511Z,10.2
2023-02-17T00:42:00.471Z,10.2
2023-02-17T00:43:00.434Z,10.2
2023-02-17T00:44:00.481Z,10.2
2023-02-17T00:45:00.438Z,10.1
2023-02-17T00:46:00.477Z,10.1
2023-02-17T00:47:00.425Z,10.1
2023-02-17T00:48:00.434Z,10.1
2023-02-17T00:49:00.427Z,10.2
2023-02-17T00:50:00.433Z,10.2
2023-02-17T00:51:00.453Z,10.2
2023-02-17T00:52:00.551Z,10.2
2023-02-17T00:53:00.464Z,10.2
2023-02-17T00:54:00.427Z,10.2
2023-02-17T00:55:00.455Z,10.2
2023-02-17T00:56:00.598Z,10.2
2023-02-17T00:57:00.436Z,10.1
2023-02-17T00:58:00.434Z,10.1
2023-02-17T00:59:00.429Z,10.1
2023-02-17T01:00:00.430Z,10.1
2023-02-17T01:01:00.745Z,10.1
2023-02-17T01:02:00.566Z,10.1
2023-02-17T01:03:00.456Z,10.1
2023-02-17T01:04:00.478Z,10.1
2023-02-17T01:05:00.532Z,10.1
2023-02-17T01:06:04.709Z,10.1
2023-02-17T01:07:00.430Z,10.1
2023-02-17T01:08:00.423Z,10.1
2023-02-17T01:09:00.983Z,10.2
2023-02-17T01:10:00.444Z,10.2
2023-02-17T01:11:00.527Z,10.1
2023-02-17T01:12:00.448Z,10.1
2023-02-17T01:13:00.459Z,10.2
2023-02-17T01:14:01.801Z,10.2
2023-02-17T01:15:00.626Z,10.2
2023-02-17T01:16:00.519Z,10.2
2023-02-17T01:17:00.481Z,10.1
2023-02-17T01:18:00.457Z,10.1
2023-02-17T01:19:01.069Z,10.1
2023-02-17T01:20:00.480Z,10.1
2023-02-17T01:21:00.464Z,10.1
2023-02-17T01:22:00.456Z,10.1
2023-02-17T01:23:00.505Z,10.1
2023-02-17T01:24:01.752Z,10.1
2023-02-17T01:25:00.486Z,10.2
2023-02-17T01:26:00.427Z,10.2
2023-02-17T01:27:00.428Z,10.2
2023-02-17T01:28:00.430Z,10.2
2023-02-17T01:29:00.931Z,10.2
2023-02-17T01:30:00.479Z,10.2
2023-02-17T01:31:04.410Z,10.2
2023-02-17T01:32:00.485Z,10.2
2023-02-17T01:33:00.443Z,10.2
2023-02-17T01:34:01.586Z,10.2
2023-02-17T01:35:00.444Z,10.2
2023-02-17T01:36:01.191Z,10.2
2023-02-17T01:37:00.439Z,10.1
2023-02-17T01:38:00.457Z,10.1
2023-02-17T01:39:00.461Z,10.2
2023-02-17T01:40:00.534Z,10.2
2023-02-17T01:41:00.587Z,10.2
2023-02-17T01:42:00.459Z,10.2
2023-02-17T01:43:00.698Z,10.1
2023-02-17T01:44:10.398Z,10.1
2023-02-17T01:45:10.370Z,10.2
2023-02-17T01:46:01.449Z,10.2
2023-02-17T01:47:00.428Z,10.1
2023-02-17T01:48:00.402Z,10.1
2023-02-17T01:49:02.292Z,10.1
2023-02-17T01:50:00.445Z,10.1
2023-02-17T01:51:03.354Z,10.1
2023-02-17T01:52:04.215Z,10.1
2023-02-17T01:53:02.185Z,10.1
2023-02-17T01:54:03.298Z,10.1
2023-02-17T01:55:02.426Z,10.1
2023-02-17T01:56:00.602Z,10.1
2023-02-17T01:57:00.800Z,10.1
2023-02-17T01:58:02.257Z,10.1
2023-02-17T01:59:04.063Z,10.1
2023-02-17T02:00:00.806Z,10.1
2023-02-17T02:01:02.161Z,10.1
2023-02-17T02:02:02.493Z,10.1
2023-02-17T02:03:01.365Z,10.0
2023-02-17T02:04:02.187Z,10.0
2023-02-17T02:05:01.119Z,10.1
2023-02-17T02:06:02.883Z,10.1
2023-02-17T02:07:01.662Z,10.1
2023-02-17T02:08:00.526Z,10.1
2023-02-17T02:09:09.886Z,10.1
2023-02-17T02:10:00.519Z,10.1
2023-02-17T02:11:00.490Z,10.2
2023-02-17T02:12:00.495Z,10.2
2023-02-17T02:13:00.438Z,10.2
2023-02-17T02:14:00.820Z,10.2
2023-02-17T02:15:02.781Z,10.1
2023-02-17T02:16:08.459Z,10.1
2023-02-17T02:17:08.929Z,10.1
2023-02-17T02:18:10.383Z,10.1
2023-02-17T02:19:10.364Z,10.1
2023-02-17T02:20:00.450Z,10.1
2023-02-17T02:21:10.391Z,10.2
2023-02-17T02:22:01.465Z,10.2
2023-02-17T02:23:10.375Z,10.2
2023-02-17T02:24:05.694Z,10.2
2023-02-17T02:25:01.497Z,10.2
2023-02-17T02:26:10.384Z,10.2
2023-02-17T02:27:10.379Z,10.1
2023-02-17T02:28:10.414Z,10.1
2023-02-17T02:29:10.373Z,10.2
2023-02-17T02:30:10.434Z,10.2
2023-02-17T02:31:01.523Z,10.2
2023-02-17T02:32:03.716Z,10.2
2023-02-17T02:33:03.793Z,10.2
2023-02-17T02:34:10.367Z,10.2
2023-02-17T02:35:10.395Z,10.1
2023-02-17T02:36:08.058Z,10.1
2023-02-17T02:37:04.913Z,10.1
2023-02-17T02:38:06.979Z,10.1
2023-02-17T02:39:03.566Z,10.1
2023-02-17T02:40:02.228Z,10.1
2023-02-17T02:41:04.500Z,10.0
2023-02-17T02:42:03.823Z,10.0
2023-02-17T02:43:01.252Z,10.1
2023-02-17T02:44:03.558Z,10.1
2023-02-17T02:45:00.493Z,10.1
2023-02-17T02:46:00.585Z,10.1
2023-02-17T02:47:02.942Z,10.0
2023-02-17T02:48:00.604Z,10.0
2023-02-17T02:49:01.476Z,10.0
2023-02-17T02:50:00.508Z,10.0
2023-02-17T02:51:10.387Z,10.0
2023-02-17T02:52:00.413Z,10.0
2023-02-17T02:53:07.409Z,9.9
2023-02-17T02:54:10.391Z,9.9
2023-02-17T02:55:06.939Z,10.1
2023-02-17T02:56:08.575Z,10.1
2023-02-17T02:57:08.907Z,10.1
2023-02-17T02:58:01.448Z,10.1
2023-02-17T02:59:09.935Z,10.0
2023-02-17T03:00:01.482Z,10.0
2023-02-17T03:01:04.989Z,10.0
2023-02-17T03:02:10.366Z,10.0
2023-02-17T03:03:10.402Z,10.0
2023-02-17T03:04:10.424Z,10.0
2023-02-17T03:05:10.393Z,10.0
2023-02-17T03:06:03.919Z,10.0
2023-02-17T03:07:10.406Z,10.0
2023-02-17T03:08:03.761Z,10.0
2023-02-17T03:09:10.361Z,10.0
2023-02-17T03:10:00.607Z,10.0
2023-02-17T03:11:01.157Z,10.0
2023-02-17T03:12:00.485Z,10.0
2023-02-17T03:13:01.044Z,10.0
2023-02-17T03:14:05.406Z,10.0
2023-02-17T03:15:03.752Z,10.0
2023-02-17T03:16:00.625Z,10.0
2023-02-17T03:17:00.464Z,10.0
2023-02-17T03:18:01.041Z,10.0
2023-02-17T03:19:00.445Z,10.1
2023-02-17T03:20:01.629Z,10.1
2023-02-17T03:21:03.480Z,9.9
2023-02-17T03:22:04.569Z,9.9
2023-02-17T03:23:00.498Z,10.0
2023-02-17T03:24:00.497Z,10.0
2023-02-17T03:25:00.443Z,9.9
2023-02-17T03:26:00.455Z,9.9
2023-02-17T03:27:00.455Z,9.9
2023-02-17T03:28:00.434Z,9.9
2023-02-17T03:29:00.465Z,9.9
2023-02-17T03:30:00.549Z,9.9
2023-02-17T03:31:00.584Z,9.9
2023-02-17T03:32:00.784Z,9.9
2023-02-17T03:33:00.631Z,9.9
2023-02-17T03:34:00.478Z,9.9
2023-02-17T03:35:00.809Z,9.9
2023-02-17T03:36:00.440Z,9.9
2023-02-17T03:37:00.434Z,9.9
2023-02-17T03:38:00.431Z,9.9
2023-02-17T03:39:00.568Z,10.0
2023-02-17T03:40:00.527Z,10.0
2023-02-17T03:41:00.486Z,10.0
2023-02-17T03:42:00.601Z,10.0
2023-02-17T03:43:00.462Z,9.9
2023-02-17T03:44:00.426Z,9.9
2023-02-17T03:45:00.458Z,10.0
2023-02-17T03:46:00.466Z,10.0
2023-02-17T03:47:00.455Z,9.9
2023-02-17T03:48:00.468Z,9.9
2023-02-17T03:49:00.454Z,9.9
2023-02-17T03:50:00.506Z,9.9
2023-02-17T03:51:08.798Z,9.9
2023-02-17T03:52:00.430Z,9.9
2023-02-17T03:53:00.450Z,9.9
2023-02-17T03:54:00.435Z,9.9
2023-02-17T03:55:00.464Z,9.9
2023-02-17T03:56:00.447Z,9.9
2023-02-17T03:57:00.460Z,9.9
2023-02-17T03:58:00.429Z,9.9
2023-02-17T03:59:00.644Z,10.0
2023-02-17T04:00:00.431Z,10.0
2023-02-17T04:01:00.527Z,10.0
2023-02-17T04:02:00.463Z,10.0
2023-02-17T04:03:00.424Z,10.0
2023-02-17T04:04:00.514Z,10.0
2023-02-17T04:05:00.552Z,10.0
2023-02-17T04:06:00.856Z,10.0
2023-02-17T04:07:00.545Z,9.9
2023-02-17T04:08:00.473Z,9.9
2023-02-17T04:09:00.440Z,9.9
2023-02-17T04:10:00.488Z,9.9
2023-02-17T04:11:01.282Z,9.9
2023-02-17T04:12:00.448Z,9.9
2023-02-17T04:13:00.451Z,9.9
2023-02-17T04:14:00.465Z,9.9
2023-02-17T04:15:00.488Z,10.0
2023-02-17T04:16:00.502Z,10.0
2023-02-17T04:17:00.423Z,9.9
2023-02-17T04:18:00.437Z,9.9
2023-02-17T04:19:00.446Z,10.0
2023-02-17T04:20:00.479Z,10.0
2023-02-17T04:21:00.490Z,10.0
2023-02-17T04:22:00.448Z,10.0
2023-02-17T04:23:00.445Z,10.1
2023-02-17T04:24:01.299Z,10.1
2023-02-17T04:25:00.470Z,10.0
2023-02-17T04:26:00.585Z,10.0
2023-02-17T04:27:00.489Z,10.0
2023-02-17T04:28:01.090Z,10.0
2023-02-17T04:29:02.540Z,10.0
2023-02-17T04:30:00.490Z,10.0
2023-02-17T04:31:00.580Z,9.9
2023-02-17T04:32:00.542Z,9.9
2023-02-17T04:33:00.641Z,10.0
2023-02-17T04:34:00.462Z,10.0
2023-02-17T04:35:00.428Z,10.0
2023-02-17T04:36:00.888Z,10.0
2023-02-17T04:37:00.454Z,10.0
2023-02-17T04:38:00.437Z,10.0
2023-02-17T04:39:00.449Z,10.0
2023-02-17T04:40:00.441Z,10.0
2023-02-17T04:41:00.666Z,9.9
2023-02-17T04:42:00.452Z,9.9
2023-02-17T04:43:00.496Z,9.9
2023-02-17T04:44:00.474Z,9.9
2023-02-17T04:45:00.425Z,9.9
2023-02-17T04:46:00.618Z,9.9
2023-02-17T04:47:00.421Z,9.9
2023-02-17T04:48:00.455Z,9.9
2023-02-17T04:49:00.486Z,10.0
2023-02-17T04:50:00.460Z,10.0
2023-02-17T04:51:00.447Z,9.9
2023-02-17T04:52:00.454Z,9.9
2023-02-17T04:53:00.442Z,10.0
2023-02-17T04:54:00.424Z,10.0
2023-02-17T04:55:00.448Z,10.0
2023-02-17T04:56:00.422Z,10.0
2023-02-17T04:57:00.511Z,9.9
2023-02-17T04:58:00.470Z,9.9
2023-02-17T04:59:00.458Z,9.9
2023-02-17T05:00:00.625Z,9.9
2023-02-17T05:01:00.451Z,9.9
2023-02-17T05:02:00.445Z,9.9
2023-02-17T05:03:00.769Z,9.9
2023-02-17T05:04:00.442Z,9.9
2023-02-17T05:05:00.524Z,10.0
2023-02-17T05:06:00.466Z,10.0
2023-02-17T05:07:00.452Z,10.0
2023-02-17T05:08:00.445Z,10.0
2023-02-17T05:09:00.453Z,9.9
2023-02-17T05:10:00.488Z,9.9
2023-02-17T05:11:00.422Z,9.9
2023-02-17T05:12:00.434Z,9.9
2023-02-17T05:13:00.439Z,10.0
2023-02-17T05:14:00.462Z,10.0
2023-02-17T05:15:00.478Z,9.8
2023-02-17T05:16:00.487Z,9.8
2023-02-17T05:17:00.443Z,9.9
2023-02-17T05:18:00.480Z,9.9
2023-02-17T05:19:00.452Z,10.0
2023-02-17T05:20:00.555Z,10.0
2023-02-17T05:21:00.449Z,10.0
2023-02-17T05:22:00.430Z,10.0
2023-02-17T05:23:00.460Z,10.1
2023-02-17T05:24:00.456Z,10.1
2023-02-17T05:25:00.455Z,10.1
2023-02-17T05:26:00.465Z,10.1
2023-02-17T05:27:00.429Z,10.1
2023-02-17T05:28:00.453Z,10.1
2023-02-17T05:29:00.416Z,10.1
2023-02-17T05:30:00.533Z,10.1
2023-02-17T05:31:00.977Z,10.0
2023-02-17T05:32:00.503Z,10.0
2023-02-17T05:33:00.424Z,10.1
2023-02-17T05:34:00.457Z,10.1
2023-02-17T05:35:00.437Z,10.0
2023-02-17T05:36:01.378Z,10.0
2023-02-17T05:37:00.704Z,10.1
2023-02-17T05:38:00.479Z,10.1
2023-02-17T05:39:00.443Z,10.0
2023-02-17T05:40:00.461Z,10.0
2023-02-17T05:41:00.450Z,10.0
2023-02-17T05:42:00.471Z,10.0
2023-02-17T05:43:00.450Z,10.1
2023-02-17T05:44:00.446Z,10.1
2023-02-17T05:45:00.466Z,10.0
2023-02-17T05:46:01.654Z,10.0
2023-02-17T05:47:00.424Z,9.9
2023-02-17T05:48:00.451Z,9.9
2023-02-17T05:49:00.438Z,9.9
2023-02-17T05:50:00.708Z,9.9
2023-02-17T05:51:00.463Z,9.8
2023-02-17T05:52:00.994Z,9.8
2023-02-17T05:53:00.465Z,9.9
2023-02-17T05:54:00.443Z,9.9
2023-02-17T05:55:00.431Z,9.9
2023-02-17T05:56:00.466Z,9.9
2023-02-17T05:57:00.476Z,10.1
2023-02-17T05:58:00.529Z,10.1
2023-02-17T05:59:00.540Z,10.0
2023-02-17T06:00:00.532Z,10.0
2023-02-17T06:01:00.433Z,9.9
2023-02-17T06:02:00.429Z,9.9
2023-02-17T06:03:00.466Z,10.0
2023-02-17T06:04:00.457Z,10.0
2023-02-17T06:05:00.599Z,9.9
2023-02-17T06:06:00.479Z,9.9
2023-02-17T06:07:00.466Z,10.0
2023-02-17T06:08:00.469Z,10.0
2023-02-17T06:09:00.432Z,10.0
2023-02-17T06:10:00.470Z,10.0
2023-02-17T06:11:00.469Z,10.0
2023-02-17T06:12:00.456Z,10.0
2023-02-17T06:13:00.433Z,10.0
2023-02-17T06:14:00.469Z,10.0
2023-02-17T06:15:00.484Z,9.9
2023-02-17T06:16:00.643Z,9.9
2023-02-17T06:17:01.189Z,9.9
2023-02-17T06:18:00.473Z,9.9
2023-02-17T06:19:00.483Z,9.9
2023-02-17T06:20:00.459Z,9.9
2023-02-17T06:21:00.465Z,10.0
2023-02-17T06:22:00.493Z,10.0
2023-02-17T06:23:00.430Z,10.0
2023-02-17T06:24:00.452Z,10.0
2023-02-17T06:25:00.483Z,10.1
2023-02-17T06:26:00.555Z,10.1
2023-02-17T06:27:00.803Z,10.1
2023-02-17T06:28:00.434Z,10.1
2023-02-17T06:29:00.453Z,10.0
2023-02-17T06:30:00.528Z,10.0
2023-02-17T06:31:00.485Z,9.9
2023-02-17T06:32:00.775Z,9.9
2023-02-17T06:33:00.422Z,10.0
2023-02-17T06:34:00.437Z,10.0
2023-02-17T06:35:00.433Z,10.0
2023-02-17T06:36:00.467Z,10.0
2023-02-17T06:37:00.459Z,10.0
2023-02-17T06:38:00.568Z,10.0
2023-02-17T06:39:00.470Z,10.0
2023-02-17T06:40:00.461Z,10.0
2023-02-17T06:41:00.424Z,10.0
2023-02-17T06:42:00.480Z,10.0
2023-02-17T06:43:00.432Z,10.1
2023-02-17T06:44:00.458Z,10.1
2023-02-17T06:45:00.519Z,10.1
2023-02-17T06:46:00.564Z,10.1
2023-02-17T06:47:00.455Z,10.1
2023-02-17T06:48:00.462Z,10.1
2023-02-17T06:49:00.450Z,10.0
2023-02-17T06:50:00.579Z,10.0
2023-02-17T06:51:00.451Z,10.1
2023-02-17T06:52:00.511Z,10.1
2023-02-17T06:53:00.456Z,10.1
2023-02-17T06:54:00.466Z,10.1
2023-02-17T06:55:00.735Z,10.1
2023-02-17T06:56:00.452Z,10.1
2023-02-17T06:57:00.450Z,10.2
2023-02-17T06:58:00.454Z,10.2
2023-02-17T06:59:00.713Z,10.1
2023-02-17T07:00:00.523Z,10.1
2023-02-17T07:01:00.451Z,10.1
2023-02-17T07:02:02.249Z,10.1
2023-02-17T07:03:00.624Z,10.1
2023-02-17T07:04:00.460Z,10.1
2023-02-17T07:05:00.458Z,10.1
2023-02-17T07:06:00.461Z,10.1
2023-02-17T07:07:00.470Z,10.1
2023-02-17T07:08:00.483Z,10.1
2023-02-17T07:09:00.436Z,10.1
2023-02-17T07:10:00.532Z,10.1
2023-02-17T07:11:04.798Z,10.2
2023-02-17T07:12:00.763Z,10.2
2023-02-17T07:13:00.460Z,10.2
2023-02-17T07:14:00.432Z,10.2
2023-02-17T07:15:00.456Z,10.1
2023-02-17T07:16:00.494Z,10.1
2023-02-17T07:17:00.953Z,10.1
2023-02-17T07:18:00.526Z,10.1
2023-02-17T07:19:00.458Z,10.2
2023-02-17T07:20:00.457Z,10.2
2023-02-17T07:21:00.433Z,10.2
2023-02-17T07:22:00.441Z,10.2
2023-02-17T07:23:00.455Z,10.2
2023-02-17T07:24:00.482Z,10.2
2023-02-17T07:25:00.425Z,10.1
2023-02-17T07:26:02.174Z,10.1
2023-02-17T07:27:00.440Z,10.1
2023-02-17T07:28:00.463Z,10.1
2023-02-17T07:29:00.425Z,10.1
2023-02-17T07:30:00.538Z,10.1
2023-02-17T07:31:09.350Z,10.2
2023-02-17T07:32:00.477Z,10.2
2023-02-17T07:33:00.441Z,10.2
2023-02-17T07:34:01.243Z,10.2
2023-02-17T07:35:00.464Z,10.3
2023-02-17T07:36:04.954Z,10.3
2023-02-17T07:37:00.423Z,10.2
2023-02-17T07:38:00.643Z,10.2
2023-02-17T07:39:01.401Z,10.3
2023-02-17T07:40:00.432Z,10.3
2023-02-17T07:41:04.718Z,10.3
2023-02-17T07:42:00.452Z,10.3
2023-02-17T07:43:00.444Z,10.3
2023-02-17T07:44:00.461Z,10.3
2023-02-17T07:45:00.426Z,10.3
2023-02-17T07:46:00.744Z,10.3
2023-02-17T07:47:00.424Z,10.3
2023-02-17T07:48:00.432Z,10.3
2023-02-17T07:49:00.425Z,10.4
2023-02-17T07:50:00.456Z,10.4
2023-02-17T07:51:09.579Z,10.4
2023-02-17T07:52:00.431Z,10.4
2023-02-17T07:53:00.445Z,10.4
2023-02-17T07:54:00.481Z,10.4
2023-02-17T07:55:00.499Z,10.4
2023-02-17T07:56:02.680Z,10.4
2023-02-17T07:57:00.453Z,10.4
2023-02-17T07:58:00.448Z,10.4
2023-02-17T07:59:00.430Z,10.3
2023-02-17T08:00:00.543Z,10.3
2023-02-17T08:01:08.806Z,10.4
2023-02-17T08:02:00.445Z,10.4
2023-02-17T08:03:00.444Z,10.4
2023-02-17T08:04:00.439Z,10.4
2023-02-17T08:05:00.457Z,10.4
2023-02-17T08:06:00.495Z,10.4
2023-02-17T08:07:00.450Z,10.4
2023-02-17T08:08:00.417Z,10.4
2023-02-17T08:09:00.431Z,10.4
2023-02-17T08:10:00.447Z,10.4
2023-02-17T08:11:01.005Z,10.4
2023-02-17T08:12:00.430Z,10.4
2023-02-17T08:13:00.426Z,10.5
2023-02-17T08:14:00.676Z,10.5
2023-02-17T08:15:00.529Z,10.5
2023-02-17T08:16:00.429Z,10.5
2023-02-17T08:17:00.519Z,10.5
2023-02-17T08:18:00.989Z,10.5
2023-02-17T08:19:00.490Z,10.5
2023-02-17T08:20:05.844Z,10.5
2023-02-17T08:21:00.633Z,10.5
2023-02-17T08:22:00.426Z,10.5
2023-02-17T08:23:00.450Z,10.5
2023-02-17T08:24:00.533Z,10.5
2023-02-17T08:25:00.452Z,10.6
2023-02-17T08:26:00.457Z,10.6
2023-02-17T08:27:00.450Z,10.6
2023-02-17T08:28:01.060Z,10.6
2023-02-17T08:29:00.422Z,10.6
2023-02-17T08:30:00.791Z,10.6
2023-02-17T08:31:00.589Z,10.8
2023-02-17T08:32:00.744Z,10.8
2023-02-17T08:33:00.428Z,10.6
2023-02-17T08:34:01.384Z,10.6
2023-02-17T08:35:00.549Z,10.7
2023-02-17T08:36:04.694Z,10.7
2023-02-17T08:37:00.700Z,10.8
2023-02-17T08:38:00.477Z,10.8
2023-02-17T08:39:00.429Z,10.9
2023-02-17T08:40:00.529Z,10.9
2023-02-17T08:41:00.480Z,10.8
2023-02-17T08:42:00.633Z,10.8
2023-02-17T08:43:02.887Z,10.8
2023-02-17T08:44:01.864Z,10.8
2023-02-17T08:45:00.451Z,10.8
2023-02-17T08:46:00.453Z,10.8
2023-02-17T08:47:00.468Z,10.9
2023-02-17T08:48:00.459Z,10.9
2023-02-17T08:49:00.537Z,10.9
2023-02-17T08:50:00.704Z,10.9
2023-02-17T08:51:00.453Z,10.9
2023-02-17T08:52:00.934Z,10.9
2023-02-17T08:53:00.462Z,11.0
2023-02-17T08:54:00.731Z,11.0
2023-02-17T08:55:00.597Z,10.9
2023-02-17T08:56:00.532Z,10.9
2023-02-17T08:57:00.484Z,10.8
2023-02-17T08:58:00.519Z,10.8
2023-02-17T08:59:00.465Z,10.8
2023-02-17T09:00:00.517Z,10.8
2023-02-17T09:01:00.965Z,10.9
2023-02-17T09:02:00.516Z,10.9
2023-02-17T09:03:00.451Z,10.9
2023-02-17T09:04:01.330Z,10.9
2023-02-17T09:05:00.612Z,10.9
2023-02-17T09:06:00.440Z,10.9
2023-02-17T09:07:00.511Z,10.9
2023-02-17T09:08:00.569Z,10.9
2023-02-17T09:09:00.940Z,10.9
2023-02-17T09:10:00.530Z,10.9
2023-02-17T09:11:00.575Z,11.0
2023-02-17T09:12:00.646Z,11.0
2023-02-17T09:13:00.468Z,11.0
2023-02-17T09:14:00.560Z,11.0
2023-02-17T09:15:00.506Z,10.9
2023-02-17T09:16:01.086Z,10.9
2023-02-17T09:17:00.481Z,11.0
2023-02-17T09:18:00.426Z,11.0
2023-02-17T09:19:00.448Z,10.9
2023-02-17T09:20:00.430Z,10.9
2023-02-17T09:21:10.358Z,11.1
2023-02-17T09:22:00.449Z,11.1
2023-02-17T09:23:00.474Z,11.0
2023-02-17T09:24:00.420Z,11.0
2023-02-17T09:25:00.524Z,11.1
2023-02-17T09:26:01.866Z,11.1
2023-02-17T09:27:00.518Z,11.0
2023-02-17T09:28:00.458Z,11.0
2023-02-17T09:29:00.939Z,11.0
2023-02-17T09:30:00.690Z,11.0
2023-02-17T09:31:08.100Z,11.0
2023-02-17T09:32:00.615Z,11.0
2023-02-17T09:33:00.473Z,11.1
2023-02-17T09:34:00.834Z,11.1
2023-02-17T09:35:00.481Z,11.1
2023-02-17T09:36:00.466Z,11.1
2023-02-17T09:37:00.460Z,11.0
2023-02-17T09:38:00.462Z,11.0
2023-02-17T09:39:00.432Z,11.1
2023-02-17T09:40:00.557Z,11.1
2023-02-17T09:41:10.358Z,11.3
2023-02-17T09:42:00.524Z,11.3
2023-02-17T09:43:00.460Z,11.2
2023-02-17T09:44:00.902Z,11.2
2023-02-17T09:45:04.078Z,11.3
2023-02-17T09:46:05.399Z,11.3
2023-02-17T09:47:03.419Z,11.3
2023-02-17T09:48:04.726Z,11.3
2023-02-17T09:49:03.107Z,11.2
2023-02-17T09:50:10.405Z,11.2
2023-02-17T09:51:06.044Z,11.2
2023-02-17T09:52:05.919Z,11.2
2023-02-17T09:53:03.915Z,11.2
2023-02-17T09:54:07.178Z,11.2
2023-02-17T09:55:03.098Z,11.2
2023-02-17T09:56:01.954Z,11.2
2023-02-17T09:57:01.963Z,11.0
2023-02-17T09:58:05.735Z,11.0
2023-02-17T09:59:03.469Z,11.1
2023-02-17T10:00:06.406Z,11.1
2023-02-17T10:01:01.759Z,11.2
2023-02-17T10:02:05.361Z,11.2
2023-02-17T10:03:04.425Z,11.2
2023-02-17T10:04:06.012Z,11.2
2023-02-17T10:05:04.000Z,11.1
2023-02-17T10:06:10.360Z,11.1
2023-02-17T10:07:06.694Z,11.1
2023-02-17T10:08:05.548Z,11.1
2023-02-17T10:09:03.339Z,11.2
2023-02-17T10:10:05.768Z,11.2
2023-02-17T10:11:03.478Z,11.2
2023-02-17T10:12:10.389Z,11.2
2023-02-17T10:13:02.024Z,11.3
2023-02-17T10:14:03.410Z,11.3
2023-02-17T10:15:03.767Z,11.5
2023-02-17T10:16:04.027Z,11.5
2023-02-17T10:17:05.879Z,11.5
2023-02-17T10:18:07.739Z,11.5
2023-02-17T10:19:04.745Z,11.6
2023-02-17T10:20:10.389Z,11.6
2023-02-17T10:21:01.422Z,11.6
2023-02-17T10:22:04.675Z,11.6
2023-02-17T10:23:05.954Z,11.5
2023-02-17T10:24:00.443Z,11.5
2023-02-17T10:25:01.350Z,11.6
2023-02-17T10:26:10.627Z,11.6
2023-02-17T10:27:10.383Z,11.6
2023-02-17T10:28:06.666Z,11.6
2023-02-17T10:29:04.651Z,11.7
2023-02-17T10:30:10.521Z,11.7
2023-02-17T10:31:03.186Z,11.6
2023-02-17T10:32:03.816Z,11.6
2023-02-17T10:33:10.413Z,11.6
2023-02-17T10:34:01.678Z,11.6
2023-02-17T10:35:10.392Z,11.5
2023-02-17T10:36:01.529Z,11.5
2023-02-17T10:37:02.785Z,11.6
2023-02-17T10:38:05.174Z,11.6
2023-02-17T10:39:07.541Z,11.6
2023-02-17T10:40:01.719Z,11.6
2023-02-17T10:41:02.634Z,11.6
2023-02-17T10:42:00.762Z,11.6
2023-02-17T10:43:04.352Z,11.6
2023-02-17T10:44:04.478Z,11.6
2023-02-17T10:45:01.528Z,11.7
2023-02-17T10:46:03.665Z,11.7
2023-02-17T10:47:00.432Z,11.6
2023-02-17T10:48:03.767Z,11.6
2023-02-17T10:49:00.499Z,11.6
2023-02-17T10:50:02.065Z,11.6
2023-02-17T10:51:00.724Z,11.6
2023-02-17T10:52:08.628Z,11.6
2023-02-17T10:53:00.468Z,11.6
2023-02-17T10:54:06.593Z,11.6
2023-02-17T10:55:11.378Z,11.6
2023-02-17T10:56:04.348Z,11.6
2023-02-17T10:57:02.496Z,11.7
2023-02-17T10:58:04.748Z,11.7
2023-02-17T10:59:04.378Z,11.7
2023-02-17T11:00:00.469Z,11.7
2023-02-17T11:01:01.692Z,11.6
2023-02-17T11:02:10.361Z,11.6
2023-02-17T11:03:00.457Z,11.7
2023-02-17T11:04:01.745Z,11.7
2023-02-17T11:05:00.458Z,11.7
2023-02-17T11:06:01.682Z,11.7
2023-02-17T11:07:01.905Z,11.7
2023-02-17T11:08:03.418Z,11.7
2023-02-17T11:09:02.607Z,11.7
2023-02-17T11:10:01.517Z,11.7
2023-02-17T11:11:03.221Z,11.8
2023-02-17T11:12:03.487Z,11.8
2023-02-17T11:13:01.098Z,11.6
2023-02-17T11:14:03.691Z,11.6
2023-02-17T11:15:02.699Z,11.5
2023-02-17T11:16:00.969Z,11.5
2023-02-17T11:17:01.885Z,11.7
2023-02-17T11:18:07.895Z,11.7
2023-02-17T11:19:00.515Z,11.7
2023-02-17T11:20:02.747Z,11.7
2023-02-17T11:21:09.780Z,11.7
2023-02-17T11:22:01.863Z,11.7
2023-02-17T11:23:03.572Z,11.7
2023-02-17T11:24:01.952Z,11.7
2023-02-17T11:25:01.648Z,11.8
2023-02-17T11:26:01.976Z,11.8
2023-02-17T11:27:01.893Z,11.8
2023-02-17T11:28:02.803Z,11.8
2023-02-17T11:29:09.164Z,11.6
2023-02-17T11:30:04.513Z,11.6
2023-02-17T11:31:00.520Z,11.8
2023-02-17T11:32:02.275Z,11.8
2023-02-17T11:33:10.376Z,11.9
2023-02-17T11:34:10.147Z,11.9
2023-02-17T11:35:00.516Z,11.9
2023-02-17T11:36:00.996Z,11.9
2023-02-17T11:37:10.361Z,11.9
2023-02-17T11:38:02.029Z,11.9
2023-02-17T11:39:10.359Z,11.8
2023-02-17T11:40:10.390Z,11.8
2023-02-17T11:41:02.431Z,11.7
2023-02-17T11:42:00.431Z,11.7
2023-02-17T11:43:02.229Z,11.8
2023-02-17T11:44:00.440Z,11.8
2023-02-17T11:45:10.390Z,11.9
2023-02-17T11:46:10.417Z,11.9
2023-02-17T11:47:08.889Z,12.0
2023-02-17T11:48:01.432Z,12.0
2023-02-17T11:49:08.412Z,12.1
2023-02-17T11:50:10.364Z,12.1
2023-02-17T11:51:10.369Z,12.0
2023-02-17T11:52:00.442Z,12.0
2023-02-17T11:53:07.826Z,11.9
2023-02-17T11:54:10.392Z,11.9
2023-02-17T11:55:10.393Z,11.9
2023-02-17T11:56:09.778Z,11.9
2023-02-17T11:57:10.366Z,11.9
2023-02-17T11:58:10.365Z,11.9
2023-02-17T11:59:10.390Z,11.8
2023-02-17T12:00:10.367Z,11.8
2023-02-17T12:01:10.387Z,11.8
2023-02-17T12:02:01.453Z,11.8
2023-02-17T12:03:03.741Z,11.8
2023-02-17T12:04:07.811Z,11.8
2023-02-17T12:05:10.422Z,11.9
2023-02-17T12:06:10.360Z,11.9
2023-02-17T12:07:00.412Z,12.0
2023-02-17T12:08:03.663Z,12.0
2023-02-17T12:09:05.908Z,12.0
2023-02-17T12:10:07.766Z,12.0
2023-02-17T12:11:08.694Z,12.0
2023-02-17T12:12:09.460Z,12.0
2023-02-17T12:13:10.361Z,12.0
2023-02-17T12:14:06.917Z,12.0
2023-02-17T12:15:10.385Z,11.9
2023-02-17T12:16:10.647Z,11.9
2023-02-17T12:17:08.388Z,11.9
2023-02-17T12:18:08.122Z,11.9
2023-02-17T12:19:10.359Z,11.8
2023-02-17T12:20:07.794Z,11.8
2023-02-17T12:21:07.688Z,11.9
2023-02-17T12:22:09.095Z,11.9
2023-02-17T12:23:10.382Z,11.9
2023-02-17T12:24:10.414Z,11.9
2023-02-17T12:25:10.389Z,11.8
2023-02-17T12:26:10.398Z,11.8
2023-02-17T12:27:10.366Z,11.8
2023-02-17T12:28:00.405Z,11.8
2023-02-17T12:29:10.354Z,11.9
2023-02-17T12:30:07.978Z,11.9
2023-02-17T12:31:02.237Z,11.9
2023-02-17T12:32:00.542Z,11.9
2023-02-17T12:33:07.858Z,11.9
2023-02-17T12:34:06.362Z,11.9
2023-02-17T12:35:10.382Z,11.9
2023-02-17T12:36:01.885Z,11.9
2023-02-17T12:37:00.531Z,11.9
2023-02-17T12:38:07.722Z,11.9
2023-02-17T12:39:02.151Z,12.0
2023-02-17T12:40:04.068Z,12.0
2023-02-17T12:41:10.358Z,11.9
2023-02-17T12:42:03.749Z,11.9
2023-02-17T12:43:02.101Z,11.8
2023-02-17T12:44:10.389Z,11.8
2023-02-17T12:45:03.850Z,11.9
2023-02-17T12:46:02.245Z,11.9
2023-02-17T12:47:05.022Z,11.8
2023-02-17T12:48:03.365Z,11.8
2023-02-17T12:49:10.361Z,11.9
2023-02-17T12:50:04.267Z,11.9
2023-02-17T12:51:10.382Z,11.9
2023-02-17T12:52:05.480Z,11.9
2023-02-17T12:53:03.838Z,11.9
2023-02-17T12:54:01.443Z,11.9
2023-02-17T12:55:03.742Z,12.0
2023-02-17T12:56:02.987Z,12.0
2023-02-17T12:57:06.819Z,11.9
2023-02-17T12:58:02.142Z,11.9
2023-02-17T12:59:10.360Z,11.8
2023-02-17T13:00:00.682Z,11.8
2023-02-17T13:01:10.310Z,11.9
2023-02-17T13:02:02.323Z,11.9
2023-02-17T13:03:01.223Z,11.8
2023-02-17T13:04:01.233Z,11.8
2023-02-17T13:05:02.850Z,11.7
2023-02-17T13:06:10.382Z,11.7
2023-02-17T13:07:06.441Z,11.8
2023-02-17T13:08:05.650Z,11.8
2023-02-17T13:09:10.363Z,11.8
2023-02-17T13:10:00.595Z,11.8
2023-02-17T13:11:01.700Z,11.7
2023-02-17T13:12:09.253Z,11.7
2023-02-17T13:13:02.043Z,11.7
2023-02-17T13:14:10.389Z,11.7
2023-02-17T13:15:02.218Z,11.7
2023-02-17T13:16:01.445Z,11.7
2023-02-17T13:17:00.476Z,11.7
2023-02-17T13:18:10.369Z,11.7
2023-02-17T13:19:05.843Z,11.8
2023-02-17T13:20:01.452Z,11.8
2023-02-17T13:21:10.365Z,11.7